sensor_id;sensor_type;location;lat;lon;timestamp;P1;durP1;ratioP1;P2;durP2;ratioP2
21999;SDS011;11164;48.818;2.322;2022-12-07T00:01:41;43.47;;;19.75;;
21999;SDS011;11164;48.818;2.322;2022-12-07T00:04:11;37.38;;;18.25;;
21999;SDS011;11164;48.818;2.322;2022-12-07T00:06:40;44.47;;;20.17;;
21999;SDS011;11164;48.818;2.322;2022-12-07T00:09:09;40.47;;;19.02;;
21999;SDS011;11164;48.818;2.322;2022-12-07T00:11:36;40.03;;;19.45;;
21999;SDS011;11164;48.818;2.322;2022-12-07T00:14:03;42.20;;;18.80;;
21999;SDS011;11164;48.818;2.322;2022-12-07T00:16:31;40.30;;;19.75;;
21999;SDS011;11164;48.818;2.322;2022-12-07T00:18:58;42.20;;;18.23;;
21999;SDS011;11164;48.818;2.322;2022-12-07T00:21:25;39.80;;;18.88;;
21999;SDS011;11164;48.818;2.322;2022-12-07T00:23:54;40.05;;;18.88;;
21999;SDS011;11164;48.818;2.322;2022-12-07T00:26:22;41.28;;;18.77;;
21999;SDS011;11164;48.818;2.322;2022-12-07T00:28:49;39.60;;;18.98;;
21999;SDS011;11164;48.818;2.322;2022-12-07T00:31:20;45.45;;;20.40;;
21999;SDS011;11164;48.818;2.322;2022-12-07T00:33:47;37.38;;;19.17;;
21999;SDS011;11164;48.818;2.322;2022-12-07T00:36:14;45.25;;;20.02;;
21999;SDS011;11164;48.818;2.322;2022-12-07T00:38:41;44.63;;;21.00;;
21999;SDS011;11164;48.818;2.322;2022-12-07T00:41:09;42.50;;;19.83;;
21999;SDS011;11164;48.818;2.322;2022-12-07T00:43:36;43.00;;;19.95;;
21999;SDS011;11164;48.818;2.322;2022-12-07T00:46:02;43.42;;;20.52;;
21999;SDS011;11164;48.818;2.322;2022-12-07T00:48:28;43.95;;;19.15;;
21999;SDS011;11164;48.818;2.322;2022-12-07T00:50:53;41.65;;;19.40;;
21999;SDS011;11164;48.818;2.322;2022-12-07T00:53:19;41.40;;;19.73;;
21999;SDS011;11164;48.818;2.322;2022-12-07T00:55:44;44.33;;;19.20;;
21999;SDS011;11164;48.818;2.322;2022-12-07T00:58:10;43.15;;;19.08;;
21999;SDS011;11164;48.818;2.322;2022-12-07T01:00:37;43.67;;;18.73;;
21999;SDS011;11164;48.818;2.322;2022-12-07T01:03:04;43.72;;;19.25;;
21999;SDS011;11164;48.818;2.322;2022-12-07T01:05:31;37.03;;;18.08;;
21999;SDS011;11164;48.818;2.322;2022-12-07T01:07:56;42.17;;;18.73;;
21999;SDS011;11164;48.818;2.322;2022-12-07T01:10:22;43.72;;;19.55;;
21999;SDS011;11164;48.818;2.322;2022-12-07T01:12:47;40.60;;;18.38;;
21999;SDS011;11164;48.818;2.322;2022-12-07T01:15:13;45.55;;;19.90;;
21999;SDS011;11164;48.818;2.322;2022-12-07T01:17:38;41.10;;;18.92;;
21999;SDS011;11164;48.818;2.322;2022-12-07T01:20:04;39.78;;;18.08;;
21999;SDS011;11164;48.818;2.322;2022-12-07T01:22:30;39.53;;;19.85;;
21999;SDS011;11164;48.818;2.322;2022-12-07T01:24:55;37.40;;;18.02;;
21999;SDS011;11164;48.818;2.322;2022-12-07T01:27:21;41.10;;;18.40;;
21999;SDS011;11164;48.818;2.322;2022-12-07T01:29:46;38.20;;;18.73;;
21999;SDS011;11164;48.818;2.322;2022-12-07T01:32:12;39.72;;;19.08;;
21999;SDS011;11164;48.818;2.322;2022-12-07T01:34:37;41.55;;;18.70;;
21999;SDS011;11164;48.818;2.322;2022-12-07T01:37:03;45.08;;;20.25;;
21999;SDS011;11164;48.818;2.322;2022-12-07T01:39:29;35.20;;;16.02;;
21999;SDS011;11164;48.818;2.322;2022-12-07T01:41:54;43.88;;;19.05;;
21999;SDS011;11164;48.818;2.322;2022-12-07T01:44:25;40.05;;;19.23;;
21999;SDS011;11164;48.818;2.322;2022-12-07T01:47:01;42.15;;;18.90;;
21999;SDS011;11164;48.818;2.322;2022-12-07T01:49:38;45.47;;;18.85;;
21999;SDS011;11164;48.818;2.322;2022-12-07T01:52:08;42.95;;;19.25;;
21999;SDS011;11164;48.818;2.322;2022-12-07T01:54:44;40.05;;;19.42;;
21999;SDS011;11164;48.818;2.322;2022-12-07T01:57:13;38.65;;;18.85;;
21999;SDS011;11164;48.818;2.322;2022-12-07T01:59:40;42.63;;;19.45;;
21999;SDS011;11164;48.818;2.322;2022-12-07T02:02:07;43.22;;;20.08;;
21999;SDS011;11164;48.818;2.322;2022-12-07T02:04:38;41.05;;;19.90;;
21999;SDS011;11164;48.818;2.322;2022-12-07T02:07:04;37.28;;;18.17;;
21999;SDS011;11164;48.818;2.322;2022-12-07T02:09:30;42.10;;;18.50;;
21999;SDS011;11164;48.818;2.322;2022-12-07T02:11:55;34.60;;;17.58;;
21999;SDS011;11164;48.818;2.322;2022-12-07T02:14:22;38.47;;;18.45;;
21999;SDS011;11164;48.818;2.322;2022-12-07T02:22:38;34.45;;;15.90;;
21999;SDS011;11164;48.818;2.322;2022-12-07T02:27:46;35.45;;;16.33;;
21999;SDS011;11164;48.818;2.322;2022-12-07T02:30:20;37.85;;;17.38;;
21999;SDS011;11164;48.818;2.322;2022-12-07T02:32:57;38.25;;;16.58;;
21999;SDS011;11164;48.818;2.322;2022-12-07T02:38:14;36.58;;;16.63;;
21999;SDS011;11164;48.818;2.322;2022-12-07T02:40:48;40.13;;;17.77;;
21999;SDS011;11164;48.818;2.322;2022-12-07T02:45:47;41.85;;;17.38;;
21999;SDS011;11164;48.818;2.322;2022-12-07T02:48:16;42.80;;;17.80;;
21999;SDS011;11164;48.818;2.322;2022-12-07T02:50:53;38.33;;;16.92;;
21999;SDS011;11164;48.818;2.322;2022-12-07T02:53:35;36.67;;;16.50;;
21999;SDS011;11164;48.818;2.322;2022-12-07T02:56:13;36.13;;;16.92;;
21999;SDS011;11164;48.818;2.322;2022-12-07T02:58:54;39.15;;;17.48;;
21999;SDS011;11164;48.818;2.322;2022-12-07T03:03:57;39.40;;;17.15;;
21999;SDS011;11164;48.818;2.322;2022-12-07T03:06:36;39.35;;;16.58;;
21999;SDS011;11164;48.818;2.322;2022-12-07T03:09:15;35.03;;;16.15;;
21999;SDS011;11164;48.818;2.322;2022-12-07T03:11:50;43.03;;;16.17;;
21999;SDS011;11164;48.818;2.322;2022-12-07T03:14:31;34.92;;;15.80;;
21999;SDS011;11164;48.818;2.322;2022-12-07T03:17:02;35.55;;;15.70;;
21999;SDS011;11164;48.818;2.322;2022-12-07T03:19:35;39.10;;;16.23;;
21999;SDS011;11164;48.818;2.322;2022-12-07T03:22:03;35.78;;;16.27;;
21999;SDS011;11164;48.818;2.322;2022-12-07T03:24:35;36.33;;;15.88;;
21999;SDS011;11164;48.818;2.322;2022-12-07T03:27:07;36.53;;;15.38;;
21999;SDS011;11164;48.818;2.322;2022-12-07T03:29:39;32.75;;;15.15;;
21999;SDS011;11164;48.818;2.322;2022-12-07T03:32:21;38.05;;;16.65;;
21999;SDS011;11164;48.818;2.322;2022-12-07T03:34:57;37.58;;;16.60;;
21999;SDS011;11164;48.818;2.322;2022-12-07T03:37:30;32.08;;;14.90;;
21999;SDS011;11164;48.818;2.322;2022-12-07T03:40:14;32.33;;;14.75;;
21999;SDS011;11164;48.818;2.322;2022-12-07T03:42:40;33.90;;;15.30;;
21999;SDS011;11164;48.818;2.322;2022-12-07T03:45:06;40.97;;;16.65;;
21999;SDS011;11164;48.818;2.322;2022-12-07T03:47:33;33.47;;;15.73;;
21999;SDS011;11164;48.818;2.322;2022-12-07T03:50:28;35.78;;;15.50;;
21999;SDS011;11164;48.818;2.322;2022-12-07T03:53:14;33.17;;;14.10;;
21999;SDS011;11164;48.818;2.322;2022-12-07T03:55:46;34.33;;;15.45;;
21999;SDS011;11164;48.818;2.322;2022-12-07T03:58:15;31.63;;;15.30;;
21999;SDS011;11164;48.818;2.322;2022-12-07T04:00:43;36.22;;;15.57;;
21999;SDS011;11164;48.818;2.322;2022-12-07T04:03:09;31.95;;;14.15;;
21999;SDS011;11164;48.818;2.322;2022-12-07T04:05:35;32.90;;;15.30;;
21999;SDS011;11164;48.818;2.322;2022-12-07T04:08:01;31.58;;;15.25;;
21999;SDS011;11164;48.818;2.322;2022-12-07T04:10:26;35.72;;;15.05;;
21999;SDS011;11164;48.818;2.322;2022-12-07T04:12:52;32.63;;;15.18;;
21999;SDS011;11164;48.818;2.322;2022-12-07T04:15:17;33.10;;;15.98;;
21999;SDS011;11164;48.818;2.322;2022-12-07T04:17:42;33.70;;;15.32;;
21999;SDS011;11164;48.818;2.322;2022-12-07T04:20:08;29.83;;;14.23;;
21999;SDS011;11164;48.818;2.322;2022-12-07T04:22:34;33.40;;;14.60;;
21999;SDS011;11164;48.818;2.322;2022-12-07T04:24:59;31.40;;;15.07;;
21999;SDS011;11164;48.818;2.322;2022-12-07T04:27:25;31.40;;;14.45;;
21999;SDS011;11164;48.818;2.322;2022-12-07T04:29:50;28.98;;;13.90;;
21999;SDS011;11164;48.818;2.322;2022-12-07T04:32:15;33.28;;;15.20;;
21999;SDS011;11164;48.818;2.322;2022-12-07T04:34:41;32.80;;;14.63;;
21999;SDS011;11164;48.818;2.322;2022-12-07T04:37:06;30.30;;;14.13;;
21999;SDS011;11164;48.818;2.322;2022-12-07T04:39:32;31.63;;;14.73;;
21999;SDS011;11164;48.818;2.322;2022-12-07T04:41:58;27.60;;;14.18;;
21999;SDS011;11164;48.818;2.322;2022-12-07T04:44:25;29.45;;;14.40;;
21999;SDS011;11164;48.818;2.322;2022-12-07T04:46:51;31.77;;;14.93;;
21999;SDS011;11164;48.818;2.322;2022-12-07T04:49:17;28.42;;;13.38;;
21999;SDS011;11164;48.818;2.322;2022-12-07T04:51:43;30.88;;;14.93;;
21999;SDS011;11164;48.818;2.322;2022-12-07T04:54:09;31.92;;;14.95;;
21999;SDS011;11164;48.818;2.322;2022-12-07T04:56:35;30.58;;;14.50;;
21999;SDS011;11164;48.818;2.322;2022-12-07T04:59:01;30.27;;;13.68;;
21999;SDS011;11164;48.818;2.322;2022-12-07T05:01:27;30.20;;;13.43;;
21999;SDS011;11164;48.818;2.322;2022-12-07T05:03:53;27.02;;;13.27;;
21999;SDS011;11164;48.818;2.322;2022-12-07T05:06:18;26.02;;;12.98;;
21999;SDS011;11164;48.818;2.322;2022-12-07T05:08:44;29.70;;;13.52;;
21999;SDS011;11164;48.818;2.322;2022-12-07T05:11:09;27.42;;;12.93;;
21999;SDS011;11164;48.818;2.322;2022-12-07T05:13:55;28.08;;;13.05;;
21999;SDS011;11164;48.818;2.322;2022-12-07T05:16:21;28.73;;;13.68;;
21999;SDS011;11164;48.818;2.322;2022-12-07T05:18:46;27.63;;;13.18;;
21999;SDS011;11164;48.818;2.322;2022-12-07T05:21:12;28.50;;;13.05;;
21999;SDS011;11164;48.818;2.322;2022-12-07T05:23:37;30.00;;;13.68;;
21999;SDS011;11164;48.818;2.322;2022-12-07T05:26:02;27.83;;;14.02;;
21999;SDS011;11164;48.818;2.322;2022-12-07T05:28:28;29.30;;;13.75;;
21999;SDS011;11164;48.818;2.322;2022-12-07T05:30:53;28.88;;;13.68;;
21999;SDS011;11164;48.818;2.322;2022-12-07T05:33:18;28.08;;;14.35;;
21999;SDS011;11164;48.818;2.322;2022-12-07T05:35:44;30.23;;;13.63;;
21999;SDS011;11164;48.818;2.322;2022-12-07T05:38:09;30.27;;;14.27;;
21999;SDS011;11164;48.818;2.322;2022-12-07T05:40:36;28.33;;;13.27;;
21999;SDS011;11164;48.818;2.322;2022-12-07T05:43:01;26.90;;;13.80;;
21999;SDS011;11164;48.818;2.322;2022-12-07T05:45:27;28.13;;;12.77;;
21999;SDS011;11164;48.818;2.322;2022-12-07T05:47:52;26.48;;;12.55;;
21999;SDS011;11164;48.818;2.322;2022-12-07T05:50:17;28.10;;;13.57;;
21999;SDS011;11164;48.818;2.322;2022-12-07T05:52:43;22.48;;;12.18;;
21999;SDS011;11164;48.818;2.322;2022-12-07T05:55:08;24.40;;;12.57;;
21999;SDS011;11164;48.818;2.322;2022-12-07T05:57:33;23.83;;;12.40;;
21999;SDS011;11164;48.818;2.322;2022-12-07T05:59:59;23.17;;;12.07;;
21999;SDS011;11164;48.818;2.322;2022-12-07T06:02:24;24.70;;;12.80;;
21999;SDS011;11164;48.818;2.322;2022-12-07T06:04:49;23.23;;;12.25;;
21999;SDS011;11164;48.818;2.322;2022-12-07T06:07:16;24.05;;;12.02;;
21999;SDS011;11164;48.818;2.322;2022-12-07T06:09:41;23.95;;;12.60;;
21999;SDS011;11164;48.818;2.322;2022-12-07T06:12:09;24.50;;;11.90;;
21999;SDS011;11164;48.818;2.322;2022-12-07T06:14:56;25.42;;;11.88;;
21999;SDS011;11164;48.818;2.322;2022-12-07T06:17:22;25.73;;;12.88;;
21999;SDS011;11164;48.818;2.322;2022-12-07T06:19:48;24.25;;;12.15;;
21999;SDS011;11164;48.818;2.322;2022-12-07T06:22:13;21.70;;;12.13;;
21999;SDS011;11164;48.818;2.322;2022-12-07T06:24:39;20.75;;;11.60;;
21999;SDS011;11164;48.818;2.322;2022-12-07T06:27:05;26.75;;;12.07;;
21999;SDS011;11164;48.818;2.322;2022-12-07T06:29:30;23.05;;;11.82;;
21999;SDS011;11164;48.818;2.322;2022-12-07T06:31:56;22.73;;;12.38;;
21999;SDS011;11164;48.818;2.322;2022-12-07T06:34:22;21.83;;;12.20;;
21999;SDS011;11164;48.818;2.322;2022-12-07T06:36:49;25.70;;;13.45;;
21999;SDS011;11164;48.818;2.322;2022-12-07T06:39:21;23.70;;;12.45;;
21999;SDS011;11164;48.818;2.322;2022-12-07T06:41:48;23.30;;;11.93;;
21999;SDS011;11164;48.818;2.322;2022-12-07T06:44:13;26.17;;;12.93;;
21999;SDS011;11164;48.818;2.322;2022-12-07T06:46:39;20.25;;;11.60;;
21999;SDS011;11164;48.818;2.322;2022-12-07T06:49:04;21.27;;;12.55;;
21999;SDS011;11164;48.818;2.322;2022-12-07T06:51:30;21.58;;;12.35;;
21999;SDS011;11164;48.818;2.322;2022-12-07T06:53:57;24.40;;;11.68;;
21999;SDS011;11164;48.818;2.322;2022-12-07T06:56:22;23.55;;;12.25;;
21999;SDS011;11164;48.818;2.322;2022-12-07T06:58:48;23.02;;;12.43;;
21999;SDS011;11164;48.818;2.322;2022-12-07T07:01:14;22.38;;;11.82;;
21999;SDS011;11164;48.818;2.322;2022-12-07T07:03:42;22.80;;;11.85;;
21999;SDS011;11164;48.818;2.322;2022-12-07T07:06:08;22.30;;;11.63;;
21999;SDS011;11164;48.818;2.322;2022-12-07T07:08:34;23.27;;;12.18;;
21999;SDS011;11164;48.818;2.322;2022-12-07T07:11:00;22.85;;;12.20;;
21999;SDS011;11164;48.818;2.322;2022-12-07T07:13:26;21.38;;;12.05;;
21999;SDS011;11164;48.818;2.322;2022-12-07T07:15:52;24.17;;;12.40;;
21999;SDS011;11164;48.818;2.322;2022-12-07T07:18:17;22.67;;;11.63;;
21999;SDS011;11164;48.818;2.322;2022-12-07T07:20:43;20.45;;;11.15;;
21999;SDS011;11164;48.818;2.322;2022-12-07T07:23:08;24.17;;;11.15;;
21999;SDS011;11164;48.818;2.322;2022-12-07T07:25:34;19.80;;;11.80;;
21999;SDS011;11164;48.818;2.322;2022-12-07T07:27:59;21.80;;;11.63;;
21999;SDS011;11164;48.818;2.322;2022-12-07T07:30:25;21.45;;;11.60;;
21999;SDS011;11164;48.818;2.322;2022-12-07T07:32:51;23.35;;;12.18;;
21999;SDS011;11164;48.818;2.322;2022-12-07T07:35:16;21.88;;;11.93;;
21999;SDS011;11164;48.818;2.322;2022-12-07T07:37:42;22.92;;;11.88;;
21999;SDS011;11164;48.818;2.322;2022-12-07T07:40:08;20.45;;;11.55;;
21999;SDS011;11164;48.818;2.322;2022-12-07T07:42:34;20.20;;;11.27;;
21999;SDS011;11164;48.818;2.322;2022-12-07T07:45:00;24.40;;;12.23;;
21999;SDS011;11164;48.818;2.322;2022-12-07T07:47:25;22.88;;;11.70;;
21999;SDS011;11164;48.818;2.322;2022-12-07T07:49:51;24.88;;;11.77;;
21999;SDS011;11164;48.818;2.322;2022-12-07T07:52:16;22.20;;;11.88;;
21999;SDS011;11164;48.818;2.322;2022-12-07T07:54:41;23.38;;;12.43;;
21999;SDS011;11164;48.818;2.322;2022-12-07T07:57:07;20.67;;;11.20;;
21999;SDS011;11164;48.818;2.322;2022-12-07T07:59:32;22.70;;;11.88;;
21999;SDS011;11164;48.818;2.322;2022-12-07T08:01:58;23.25;;;11.02;;
21999;SDS011;11164;48.818;2.322;2022-12-07T08:04:23;21.85;;;12.23;;
21999;SDS011;11164;48.818;2.322;2022-12-07T08:06:48;21.20;;;11.25;;
21999;SDS011;11164;48.818;2.322;2022-12-07T08:09:14;23.70;;;12.10;;
21999;SDS011;11164;48.818;2.322;2022-12-07T08:11:39;22.42;;;11.32;;
21999;SDS011;11164;48.818;2.322;2022-12-07T08:14:04;24.25;;;11.68;;
21999;SDS011;11164;48.818;2.322;2022-12-07T08:16:30;20.33;;;11.05;;
21999;SDS011;11164;48.818;2.322;2022-12-07T08:18:55;22.77;;;11.07;;
21999;SDS011;11164;48.818;2.322;2022-12-07T08:21:21;19.35;;;11.00;;
21999;SDS011;11164;48.818;2.322;2022-12-07T08:23:46;22.20;;;10.55;;
21999;SDS011;11164;48.818;2.322;2022-12-07T08:26:13;21.60;;;11.32;;
21999;SDS011;11164;48.818;2.322;2022-12-07T08:28:40;21.83;;;10.75;;
21999;SDS011;11164;48.818;2.322;2022-12-07T08:31:07;21.13;;;10.88;;
21999;SDS011;11164;48.818;2.322;2022-12-07T08:33:35;23.70;;;11.80;;
21999;SDS011;11164;48.818;2.322;2022-12-07T08:36:02;21.23;;;11.27;;
21999;SDS011;11164;48.818;2.322;2022-12-07T08:38:29;20.35;;;10.88;;
21999;SDS011;11164;48.818;2.322;2022-12-07T08:40:55;22.08;;;10.88;;
21999;SDS011;11164;48.818;2.322;2022-12-07T08:43:21;17.80;;;10.25;;
21999;SDS011;11164;48.818;2.322;2022-12-07T08:45:53;23.05;;;10.27;;
21999;SDS011;11164;48.818;2.322;2022-12-07T08:48:26;20.63;;;11.82;;
21999;SDS011;11164;48.818;2.322;2022-12-07T08:50:51;20.55;;;10.45;;
21999;SDS011;11164;48.818;2.322;2022-12-07T08:53:17;22.23;;;11.45;;
21999;SDS011;11164;48.818;2.322;2022-12-07T08:55:43;20.88;;;11.15;;
21999;SDS011;11164;48.818;2.322;2022-12-07T08:58:10;23.23;;;11.45;;
21999;SDS011;11164;48.818;2.322;2022-12-07T09:00:35;20.08;;;10.45;;
21999;SDS011;11164;48.818;2.322;2022-12-07T09:03:01;21.95;;;10.70;;
21999;SDS011;11164;48.818;2.322;2022-12-07T09:05:26;17.85;;;10.30;;
21999;SDS011;11164;48.818;2.322;2022-12-07T09:07:52;21.48;;;10.65;;
21999;SDS011;11164;48.818;2.322;2022-12-07T09:10:22;22.75;;;10.40;;
21999;SDS011;11164;48.818;2.322;2022-12-07T09:12:48;22.52;;;11.30;;
21999;SDS011;11164;48.818;2.322;2022-12-07T09:15:13;20.30;;;10.77;;
21999;SDS011;11164;48.818;2.322;2022-12-07T09:17:39;17.58;;;9.82;;
21999;SDS011;11164;48.818;2.322;2022-12-07T09:20:05;17.00;;;9.93;;
21999;SDS011;11164;48.818;2.322;2022-12-07T09:22:31;18.05;;;9.90;;
21999;SDS011;11164;48.818;2.322;2022-12-07T09:24:58;19.00;;;10.00;;
21999;SDS011;11164;48.818;2.322;2022-12-07T09:27:24;18.48;;;9.65;;
21999;SDS011;11164;48.818;2.322;2022-12-07T09:29:49;17.52;;;9.75;;
21999;SDS011;11164;48.818;2.322;2022-12-07T09:32:15;17.20;;;9.85;;
21999;SDS011;11164;48.818;2.322;2022-12-07T09:34:40;17.77;;;10.20;;
21999;SDS011;11164;48.818;2.322;2022-12-07T09:37:06;21.02;;;10.60;;
21999;SDS011;11164;48.818;2.322;2022-12-07T09:39:31;20.48;;;10.20;;
21999;SDS011;11164;48.818;2.322;2022-12-07T09:41:57;18.08;;;10.05;;
21999;SDS011;11164;48.818;2.322;2022-12-07T09:44:25;17.90;;;9.80;;
21999;SDS011;11164;48.818;2.322;2022-12-07T09:46:53;17.27;;;9.85;;
21999;SDS011;11164;48.818;2.322;2022-12-07T09:49:19;16.25;;;9.88;;
21999;SDS011;11164;48.818;2.322;2022-12-07T09:51:59;17.38;;;9.38;;
21999;SDS011;11164;48.818;2.322;2022-12-07T09:54:27;16.17;;;8.90;;
21999;SDS011;11164;48.818;2.322;2022-12-07T09:56:54;17.92;;;9.23;;
21999;SDS011;11164;48.818;2.322;2022-12-07T09:59:20;15.68;;;8.90;;
21999;SDS011;11164;48.818;2.322;2022-12-07T10:01:49;18.38;;;9.80;;
21999;SDS011;11164;48.818;2.322;2022-12-07T10:04:21;16.58;;;9.60;;
21999;SDS011;11164;48.818;2.322;2022-12-07T10:06:49;16.67;;;9.57;;
21999;SDS011;11164;48.818;2.322;2022-12-07T10:09:16;17.00;;;9.63;;
21999;SDS011;11164;48.818;2.322;2022-12-07T10:12:05;16.90;;;9.45;;
21999;SDS011;11164;48.818;2.322;2022-12-07T10:17:34;19.13;;;9.65;;
21999;SDS011;11164;48.818;2.322;2022-12-07T10:20:11;16.38;;;9.80;;
21999;SDS011;11164;48.818;2.322;2022-12-07T10:25:29;16.00;;;9.20;;
21999;SDS011;11164;48.818;2.322;2022-12-07T10:30:33;18.15;;;9.40;;
21999;SDS011;11164;48.818;2.322;2022-12-07T10:36:17;17.05;;;9.57;;
21999;SDS011;11164;48.818;2.322;2022-12-07T10:38:50;15.52;;;9.45;;
21999;SDS011;11164;48.818;2.322;2022-12-07T10:41:18;17.83;;;9.23;;
21999;SDS011;11164;48.818;2.322;2022-12-07T10:43:48;18.08;;;10.05;;
21999;SDS011;11164;48.818;2.322;2022-12-07T10:46:22;17.67;;;9.52;;
21999;SDS011;11164;48.818;2.322;2022-12-07T10:49:04;15.65;;;9.20;;
21999;SDS011;11164;48.818;2.322;2022-12-07T10:52:07;15.98;;;9.00;;
21999;SDS011;11164;48.818;2.322;2022-12-07T10:57:22;16.45;;;9.70;;
21999;SDS011;11164;48.818;2.322;2022-12-07T11:08:03;15.82;;;9.32;;
21999;SDS011;11164;48.818;2.322;2022-12-07T11:13:32;15.93;;;8.98;;
21999;SDS011;11164;48.818;2.322;2022-12-07T11:16:16;16.75;;;9.13;;
21999;SDS011;11164;48.818;2.322;2022-12-07T11:18:51;19.25;;;9.52;;
21999;SDS011;11164;48.818;2.322;2022-12-07T11:21:45;17.83;;;9.70;;
21999;SDS011;11164;48.818;2.322;2022-12-07T11:24:20;18.85;;;8.80;;
21999;SDS011;11164;48.818;2.322;2022-12-07T11:37:35;19.53;;;9.83;;
21999;SDS011;11164;48.818;2.322;2022-12-07T11:40:04;18.52;;;9.88;;
21999;SDS011;11164;48.818;2.322;2022-12-07T11:42:41;18.02;;;9.27;;
21999;SDS011;11164;48.818;2.322;2022-12-07T11:50:26;17.92;;;9.85;;
21999;SDS011;11164;48.818;2.322;2022-12-07T11:53:18;17.73;;;9.98;;
21999;SDS011;11164;48.818;2.322;2022-12-07T11:55:50;20.25;;;10.50;;
21999;SDS011;11164;48.818;2.322;2022-12-07T12:06:42;17.65;;;9.98;;
21999;SDS011;11164;48.818;2.322;2022-12-07T12:09:19;21.80;;;10.73;;
21999;SDS011;11164;48.818;2.322;2022-12-07T12:19:59;19.50;;;9.90;;
21999;SDS011;11164;48.818;2.322;2022-12-07T12:22:27;18.98;;;9.73;;
21999;SDS011;11164;48.818;2.322;2022-12-07T12:25:07;16.48;;;7.65;;
21999;SDS011;11164;48.818;2.322;2022-12-07T12:27:49;14.57;;;7.28;;
21999;SDS011;11164;48.818;2.322;2022-12-07T12:33:06;17.15;;;7.47;;
21999;SDS011;11164;48.818;2.322;2022-12-07T12:35:40;15.88;;;8.70;;
21999;SDS011;11164;48.818;2.322;2022-12-07T12:40:55;20.38;;;8.55;;
21999;SDS011;11164;48.818;2.322;2022-12-07T12:49:41;13.25;;;7.55;;
21999;SDS011;11164;48.818;2.322;2022-12-07T12:54:24;17.35;;;9.75;;
21999;SDS011;11164;48.818;2.322;2022-12-07T13:13:00;18.98;;;9.98;;
21999;SDS011;11164;48.818;2.322;2022-12-07T13:21:02;18.35;;;10.77;;
21999;SDS011;11164;48.818;2.322;2022-12-07T13:26:21;23.50;;;9.68;;
21999;SDS011;11164;48.818;2.322;2022-12-07T13:31:23;16.70;;;9.75;;
21999;SDS011;11164;48.818;2.322;2022-12-07T13:37:01;20.45;;;10.07;;
21999;SDS011;11164;48.818;2.322;2022-12-07T13:39:20;19.38;;;10.63;;
21999;SDS011;11164;48.818;2.322;2022-12-07T13:41:54;16.50;;;10.13;;
21999;SDS011;11164;48.818;2.322;2022-12-07T13:44:22;22.30;;;10.93;;
21999;SDS011;11164;48.818;2.322;2022-12-07T13:49:48;19.13;;;11.07;;
21999;SDS011;11164;48.818;2.322;2022-12-07T13:52:19;15.60;;;9.77;;
21999;SDS011;11164;48.818;2.322;2022-12-07T13:54:58;17.23;;;11.40;;
21999;SDS011;11164;48.818;2.322;2022-12-07T13:57:38;16.02;;;10.30;;
21999;SDS011;11164;48.818;2.322;2022-12-07T14:00:04;18.85;;;10.35;;
21999;SDS011;11164;48.818;2.322;2022-12-07T14:05:24;19.17;;;10.27;;
21999;SDS011;11164;48.818;2.322;2022-12-07T14:08:04;20.13;;;9.95;;
21999;SDS011;11164;48.818;2.322;2022-12-07T14:13:22;16.80;;;9.60;;
21999;SDS011;11164;48.818;2.322;2022-12-07T14:15:56;17.55;;;10.30;;
21999;SDS011;11164;48.818;2.322;2022-12-07T14:23:30;17.80;;;9.80;;
21999;SDS011;11164;48.818;2.322;2022-12-07T14:26:04;18.40;;;10.02;;
21999;SDS011;11164;48.818;2.322;2022-12-07T14:28:33;24.25;;;10.63;;
21999;SDS011;11164;48.818;2.322;2022-12-07T14:31:01;19.27;;;10.95;;
21999;SDS011;11164;48.818;2.322;2022-12-07T14:33:27;20.02;;;10.70;;
21999;SDS011;11164;48.818;2.322;2022-12-07T14:35:53;18.98;;;11.02;;
21999;SDS011;11164;48.818;2.322;2022-12-07T14:38:21;18.25;;;10.73;;
21999;SDS011;11164;48.818;2.322;2022-12-07T14:40:46;21.63;;;11.00;;
21999;SDS011;11164;48.818;2.322;2022-12-07T14:43:14;16.75;;;10.13;;
21999;SDS011;11164;48.818;2.322;2022-12-07T14:45:41;18.67;;;9.48;;
21999;SDS011;11164;48.818;2.322;2022-12-07T14:48:10;18.60;;;10.38;;
21999;SDS011;11164;48.818;2.322;2022-12-07T14:50:38;15.63;;;9.32;;
21999;SDS011;11164;48.818;2.322;2022-12-07T14:53:14;18.52;;;9.68;;
21999;SDS011;11164;48.818;2.322;2022-12-07T14:55:41;19.63;;;9.90;;
21999;SDS011;11164;48.818;2.322;2022-12-07T14:58:11;17.20;;;9.10;;
21999;SDS011;11164;48.818;2.322;2022-12-07T15:00:39;17.48;;;9.23;;
21999;SDS011;11164;48.818;2.322;2022-12-07T15:03:04;15.32;;;9.02;;
21999;SDS011;11164;48.818;2.322;2022-12-07T15:05:30;16.65;;;8.88;;
21999;SDS011;11164;48.818;2.322;2022-12-07T15:07:55;17.70;;;9.70;;
21999;SDS011;11164;48.818;2.322;2022-12-07T15:10:22;15.50;;;8.75;;
21999;SDS011;11164;48.818;2.322;2022-12-07T15:12:54;18.92;;;8.30;;
21999;SDS011;11164;48.818;2.322;2022-12-07T15:15:20;16.13;;;8.00;;
21999;SDS011;11164;48.818;2.322;2022-12-07T15:17:45;16.95;;;8.65;;
21999;SDS011;11164;48.818;2.322;2022-12-07T15:20:12;15.52;;;8.00;;
21999;SDS011;11164;48.818;2.322;2022-12-07T15:22:41;17.55;;;7.90;;
21999;SDS011;11164;48.818;2.322;2022-12-07T15:25:06;18.13;;;8.20;;
21999;SDS011;11164;48.818;2.322;2022-12-07T15:27:33;16.63;;;8.10;;
21999;SDS011;11164;48.818;2.322;2022-12-07T15:29:59;14.98;;;8.65;;
21999;SDS011;11164;48.818;2.322;2022-12-07T15:32:24;14.15;;;8.43;;
21999;SDS011;11164;48.818;2.322;2022-12-07T15:34:49;16.10;;;8.05;;
21999;SDS011;11164;48.818;2.322;2022-12-07T15:37:15;16.83;;;8.57;;
21999;SDS011;11164;48.818;2.322;2022-12-07T15:39:40;19.48;;;9.25;;
21999;SDS011;11164;48.818;2.322;2022-12-07T15:42:06;22.05;;;9.00;;
21999;SDS011;11164;48.818;2.322;2022-12-07T15:44:31;14.95;;;8.38;;
21999;SDS011;11164;48.818;2.322;2022-12-07T15:47:15;17.98;;;9.02;;
21999;SDS011;11164;48.818;2.322;2022-12-07T15:49:40;16.60;;;8.73;;
21999;SDS011;11164;48.818;2.322;2022-12-07T15:52:06;16.75;;;9.05;;
21999;SDS011;11164;48.818;2.322;2022-12-07T15:54:31;16.20;;;8.13;;
21999;SDS011;11164;48.818;2.322;2022-12-07T15:56:57;15.25;;;8.77;;
21999;SDS011;11164;48.818;2.322;2022-12-07T15:59:23;14.30;;;8.73;;
21999;SDS011;11164;48.818;2.322;2022-12-07T16:01:48;18.52;;;8.25;;
21999;SDS011;11164;48.818;2.322;2022-12-07T16:04:14;14.27;;;8.25;;
21999;SDS011;11164;48.818;2.322;2022-12-07T16:06:39;17.65;;;8.57;;
21999;SDS011;11164;48.818;2.322;2022-12-07T16:09:05;14.18;;;8.43;;
21999;SDS011;11164;48.818;2.322;2022-12-07T16:11:31;18.33;;;8.68;;
21999;SDS011;11164;48.818;2.322;2022-12-07T16:13:56;17.67;;;9.25;;
21999;SDS011;11164;48.818;2.322;2022-12-07T16:16:22;16.23;;;8.70;;
21999;SDS011;11164;48.818;2.322;2022-12-07T16:18:48;17.25;;;8.70;;
21999;SDS011;11164;48.818;2.322;2022-12-07T16:21:14;17.13;;;8.88;;
21999;SDS011;11164;48.818;2.322;2022-12-07T16:23:41;16.80;;;8.82;;
21999;SDS011;11164;48.818;2.322;2022-12-07T16:26:08;18.75;;;8.30;;
21999;SDS011;11164;48.818;2.322;2022-12-07T16:28:38;17.27;;;9.32;;
21999;SDS011;11164;48.818;2.322;2022-12-07T16:31:05;15.88;;;8.60;;
21999;SDS011;11164;48.818;2.322;2022-12-07T16:33:36;18.10;;;9.07;;
21999;SDS011;11164;48.818;2.322;2022-12-07T16:36:03;17.08;;;9.15;;
21999;SDS011;11164;48.818;2.322;2022-12-07T16:38:29;22.77;;;9.18;;
21999;SDS011;11164;48.818;2.322;2022-12-07T16:40:55;15.98;;;8.52;;
21999;SDS011;11164;48.818;2.322;2022-12-07T16:43:20;19.25;;;9.30;;
21999;SDS011;11164;48.818;2.322;2022-12-07T16:45:46;15.30;;;8.52;;